Madison, WI (53714)

7:31 AM CST on February 08, 2016 (GMT -0600)
Rolling Meadows | | Change Station
CLOSE
Current Station
Personal Weather Station
Location: Madison, WI
Elevation: 925 ft
Nearby Weather Stations

Elev 925 ft 43.09 °N, 89.30 °W | Updated 6 minutes ago

Overcast
Overcast
23.0 °F
Feels Like 18 °F
N
3.7
Wind Variable Wind from West

Today
High -- | Low -- °F
--% Chance of Precip.
Yesterday
High -- | Low -- °F
Precip. -- in
Pressure 29.67 in
Visibility 9.0 miles
Clouds Overcast 1700 ft
Windchill 18 °F
Dew Point 21 °F
Humidity 92%
Rainfall 0.00 in
Snow Depth Not available.
7:04 AM 5:18 PM
Waning Crescent, 0% visible
METAR KMSN 081253Z 30010G16KT 9SM -SN OVC017 M04/M08 A2964 RMK AO2 SLP047 P0000 T10441078
Pressure 29.67 in
Visibility 9.0 miles
Clouds Overcast 1700 ft
Windchill 18 °F
Dew Point 21 °F
Humidity 92%
Rainfall 0.00 in
Snow Depth Not available.
7:04 AM 5:18 PM
Waning Crescent, 0% visible
METAR KMSN 081253Z 30010G16KT 9SM -SN OVC017 M04/M08 A2964 RMK AO2 SLP047 P0000 T10441078

10-Day Weather Forecast

Almanac

Astronomy

Feb. 08, 2016 Rise Set
Actual Time
Civil Twilight
Nautical Twilight
Astronomical Twilight
Moon
Length of Visible Light
Length of Day
Tomorrow will be .
, % of the Moon is Illuminated

Today's Extremes

State Highs State Lows

Community

WunderPhotos

Upload Photos

1,891,434 photos uploaded!

WunderBlog® & News

Nearby

Air Quality

  Air Quality AQ Index Pollutant
Not available.

Snow Depth

Station Depth Elevation

Earthquake Activity

City Distance Mag. Time & Date
Minimum magnitude displayed is 2.5.

Coastal Water Temperatures

Place Temperature

Stations

Nearby Weather Stations

Station Location Temp. Windchill Dew Point Humidity Wind Precip. Elev Updated Type
                   

Watches & Warnings

There are currently no watches in effect.